Airfield :
LOGIN :

Register | Disclaimer

   EN    FR    IT 

 










Legend :    VFR   Marginal VFR   IFR   Intensive IFR   Very Intensive IFR
Visi :
Ceiling :
>= 8 km
>= 3000ft
5 to 8 km
1000 to 3000 ft
1500m to 5 km
500 to 1000 ft
800 to 1500m
200 to 500 ft
< 800m
< 200 ft
Symbols :   Thunderstorms  Fog  Heavy snow  Heavy precipitations  Wind > 20 kt
SIGMETs :     Misc.  Thunderstorms  Icing  Turbulence  Mountain Waves  Volcanic Ashes







- Airport Elevation : 284 ft


EGUW - RAF Wattisham

CURRENT METAR :
  • 201250Z 35010KT 9999 FEW019 BKN090 16/12 Q1012 BLU TEMPO SCT019 WHT

EXPIRED METARs :
  • 201213Z 35010KT 9999 FEW015 SCT080 BKN140 16/13 Q1012 BLU TEMPO SCT015 WHT
  • 201150Z 34010KT 9999 -RA SCT012 BKN080 14/12 Q1012 GRN BECMG FEW014 BLU
  • 201050Z 33009KT 9999 -RA BKN009 BKN060 13/12 Q1012 GRN NOSIG

TAF TAF EGUW
Valid from the 20 at 12:00 until the 20 at 21:00 UTC


201030Z 2012/2021 34007KT 9999 FEW014
TEMPO 2012/2013 SCT014
TEMPO 2013/2015 SCT020
No reported NOTAMs for that airfield.
1 SIGMET reported for the London FIR (EGTT) :
 
Embedded thunderstorms
EGTT SIGMET 02 VALID 200845/201245 EGRR
EGTT LONDON FIR EMBD TS FCST WI N5500 E00500 - N5404 E00412 - N5348 E00231 - N5500 E00231 - N5500 E00500 TOP FL280 MOV NW 10KT NC=



MET'MAP, your aeronautical weather chart ! - Copyright ORBIFLY December 2007 - Disclaimer

ORBIFLY MET'MAP TEAM :

Programming & Development : Alexandra Zaïnal
Concept & Development : Baudouin d'Aumeries
Co-Development & Prog : Marc-Olivier Méhu
Technical & hardware support : Manuel Goepfert

Contact : metmap@orbifly.com




SOURCES & CREDITS :

   NOAA